createdAt,value
2022-11-22T00:01:38.785Z,94.52
2022-11-22T00:04:00.284Z,94.92
2022-11-22T00:06:21.763Z,95.55
2022-11-22T00:08:43.190Z,96.11
2022-11-22T00:11:04.653Z,96.18
2022-11-22T00:13:26.140Z,95.08
2022-11-22T00:16:01.340Z,94.76
2022-11-22T00:18:22.781Z,95.04
2022-11-22T00:20:44.236Z,94.80
2022-11-22T00:23:05.648Z,95.01
2022-11-22T00:25:27.575Z,94.97
2022-11-22T00:27:49.020Z,95.30
2022-11-22T00:30:10.853Z,95.35
2022-11-22T00:32:32.423Z,95.82
2022-11-22T00:34:53.883Z,95.13
2022-11-22T00:37:15.367Z,95.72
2022-11-22T00:39:36.963Z,95.55
2022-11-22T00:41:58.929Z,95.44
2022-11-22T00:44:20.411Z,95.48
2022-11-22T00:46:41.888Z,95.80
2022-11-22T00:49:03.443Z,95.61
2022-11-22T00:51:24.908Z,95.29
2022-11-22T00:53:46.377Z,95.59
2022-11-22T00:56:07.838Z,94.89
2022-11-22T00:58:29.323Z,94.62
2022-11-22T01:00:56.237Z,94.48
2022-11-22T01:03:18.206Z,94.63
2022-11-22T01:05:40.167Z,94.95
2022-11-22T01:08:01.598Z,94.50
2022-11-22T01:10:23.600Z,94.69
2022-11-22T01:12:45.108Z,94.15
2022-11-22T01:15:07.302Z,93.63
2022-11-22T01:17:28.803Z,94.34
2022-11-22T01:19:50.260Z,94.23
2022-11-22T01:22:11.728Z,94.76
2022-11-22T01:24:33.164Z,94.18
2022-11-22T01:26:55.009Z,94.23
2022-11-22T01:29:16.474Z,94.89
2022-11-22T01:31:37.939Z,93.96
2022-11-22T01:33:59.499Z,93.86
2022-11-22T01:36:21.023Z,92.96
2022-11-22T01:38:43.075Z,93.75
2022-11-22T01:41:04.548Z,93.88
2022-11-22T01:43:28.258Z,94.48
2022-11-22T01:45:57.699Z,93.83
2022-11-22T01:48:21.876Z,95.12
2022-11-22T01:50:46.719Z,95.36
2022-11-22T01:53:12.635Z,95.08
2022-11-22T01:55:35.969Z,95.13
2022-11-22T01:57:58.148Z,95.43
2022-11-22T02:00:19.744Z,96.59
2022-11-22T02:02:41.745Z,96.17
2022-11-22T02:05:09.295Z,95.88
2022-11-22T02:07:46.084Z,96.40
2022-11-22T02:10:08.780Z,96.02
2022-11-22T02:12:31.918Z,95.08
2022-11-22T02:14:53.987Z,93.92
2022-11-22T02:17:15.705Z,94.05
2022-11-22T02:19:44.396Z,95.18
2022-11-22T02:22:29.494Z,94.69
2022-11-22T02:25:07.305Z,93.73
2022-11-22T02:27:28.820Z,94.14
2022-11-22T02:29:50.260Z,93.50
2022-11-22T02:32:11.743Z,93.65
2022-11-22T02:34:48.160Z,94.14
2022-11-22T02:37:10.764Z,94.92
2022-11-22T02:39:32.548Z,94.98
2022-11-22T02:41:56.196Z,95.93
2022-11-22T02:44:19.580Z,94.42
2022-11-22T02:46:51.906Z,95.35
2022-11-22T02:49:15.520Z,95.16
2022-11-22T02:51:37.040Z,95.51
2022-11-22T02:53:58.487Z,95.82
2022-11-22T02:56:19.963Z,95.99
2022-11-22T02:58:41.571Z,94.95
2022-11-22T03:01:03.433Z,95.66
2022-11-22T03:03:24.960Z,95.67
2022-11-22T03:05:46.433Z,94.56
2022-11-22T03:08:07.860Z,93.78
2022-11-22T03:10:29.337Z,92.41
2022-11-22T03:12:51.029Z,92.39
2022-11-22T03:15:12.462Z,92.13
2022-11-22T03:17:33.912Z,91.94
2022-11-22T03:19:55.343Z,92.39
2022-11-22T03:22:16.794Z,92.35
2022-11-22T03:24:38.236Z,93.21
2022-11-22T03:26:59.949Z,92.45
2022-11-22T03:29:21.430Z,93.03
2022-11-22T03:31:42.928Z,93.54
2022-11-22T03:34:04.426Z,93.94
2022-11-22T03:36:25.925Z,93.69
2022-11-22T03:38:47.588Z,93.54
2022-11-22T03:41:09.035Z,93.60
2022-11-22T03:43:30.513Z,93.44
2022-11-22T03:45:52.334Z,92.89
2022-11-22T03:48:14.107Z,92.13
2022-11-22T03:50:35.551Z,92.90
2022-11-22T03:52:56.978Z,93.32
2022-11-22T03:55:18.428Z,93.70
2022-11-22T03:57:39.898Z,93.75
2022-11-22T04:00:01.333Z,93.63
2022-11-22T04:02:22.773Z,93.02
2022-11-22T04:04:44.202Z,93.22
2022-11-22T04:07:05.694Z,94.78
2022-11-22T04:09:27.464Z,95.52
2022-11-22T04:11:49.166Z,94.68
2022-11-22T04:14:32.364Z,95.15
2022-11-22T04:16:53.815Z,94.36
2022-11-22T04:19:15.363Z,94.12
2022-11-22T04:21:36.913Z,94.10
2022-11-22T04:24:16.682Z,94.74
2022-11-22T04:26:38.130Z,93.35
2022-11-22T04:29:09.650Z,93.16
2022-11-22T04:31:50.465Z,93.44
2022-11-22T04:34:11.963Z,94.30
2022-11-22T04:36:33.405Z,94.62
2022-11-22T04:38:54.829Z,95.24
2022-11-22T04:41:16.254Z,95.63
2022-11-22T04:43:56.142Z,95.96
2022-11-22T04:46:17.606Z,96.16
2022-11-22T04:48:39.308Z,96.17
2022-11-22T04:51:19.806Z,95.75
2022-11-22T04:53:41.259Z,95.78
2022-11-22T04:56:02.810Z,95.94
2022-11-22T04:58:24.319Z,96.11
2022-11-22T05:00:45.909Z,94.55
2022-11-22T05:03:08.084Z,94.75
2022-11-22T05:05:29.989Z,94.59
2022-11-22T05:07:51.438Z,93.09
2022-11-22T05:10:12.903Z,93.07
2022-11-22T05:12:34.371Z,94.10
2022-11-22T05:14:55.805Z,93.68
2022-11-22T05:17:17.294Z,93.91
2022-11-22T05:19:38.712Z,93.28
2022-11-22T05:22:00.249Z,93.25
2022-11-22T05:24:21.686Z,93.49
2022-11-22T05:26:43.225Z,93.90
2022-11-22T05:29:10.167Z,93.40
2022-11-22T05:31:33.431Z,93.68
2022-11-22T05:33:57.047Z,93.45
2022-11-22T05:36:19.457Z,92.16
2022-11-22T05:38:41.009Z,92.04
2022-11-22T05:41:04.028Z,92.61
2022-11-22T05:43:25.474Z,93.04
2022-11-22T05:45:46.919Z,91.75
2022-11-22T05:48:08.476Z,91.16
2022-11-22T05:50:29.921Z,91.62
2022-11-22T05:52:51.646Z,91.91
2022-11-22T05:55:13.247Z,91.51
2022-11-22T05:57:34.799Z,91.68
2022-11-22T05:59:56.270Z,91.49
2022-11-22T06:02:18.270Z,93.23
2022-11-22T06:04:39.905Z,93.14
2022-11-22T06:07:04.364Z,93.42
2022-11-22T06:09:30.115Z,93.49
2022-11-22T06:11:51.759Z,93.28
2022-11-22T06:14:13.193Z,93.42
2022-11-22T06:16:34.652Z,93.35
2022-11-22T06:18:56.828Z,92.71
2022-11-22T06:21:23.226Z,92.93
2022-11-22T06:23:45.326Z,93.39
2022-11-22T06:26:09.855Z,94.01
2022-11-22T06:28:33.747Z,92.81
2022-11-22T06:31:01.590Z,92.50
2022-11-22T06:33:23.015Z,92.96
2022-11-22T06:35:44.562Z,92.92
2022-11-22T06:38:06.022Z,92.30
2022-11-22T06:40:27.452Z,92.14
2022-11-22T06:42:48.893Z,91.29
2022-11-22T06:45:10.858Z,91.78
2022-11-22T06:47:32.445Z,91.10
2022-11-22T06:49:53.897Z,91.26
2022-11-22T06:52:15.350Z,91.32
2022-11-22T06:54:36.930Z,90.73
2022-11-22T06:56:58.382Z,90.48
2022-11-22T06:59:19.814Z,90.74
2022-11-22T07:01:41.445Z,91.00
2022-11-22T07:04:04.003Z,91.56
2022-11-22T07:06:28.239Z,92.44
2022-11-22T07:08:49.703Z,91.69
2022-11-22T07:11:14.072Z,92.02
2022-11-22T07:13:35.969Z,92.92
2022-11-22T07:15:59.905Z,92.31
2022-11-22T07:18:21.798Z,93.76
2022-11-22T07:20:43.297Z,94.53
2022-11-22T07:23:04.858Z,93.50
2022-11-22T07:25:26.288Z,92.58
2022-11-22T07:27:48.883Z,92.65
2022-11-22T07:30:10.957Z,91.67
2022-11-22T07:32:32.393Z,91.57
2022-11-22T07:34:53.824Z,91.66
2022-11-22T07:37:15.372Z,91.88
2022-11-22T07:39:36.798Z,90.72
2022-11-22T07:41:58.286Z,92.63
2022-11-22T07:44:19.712Z,92.74
2022-11-22T07:46:41.236Z,92.35
2022-11-22T07:49:02.998Z,92.37
2022-11-22T07:51:24.718Z,92.37
2022-11-22T07:53:46.216Z,92.13
2022-11-22T07:56:07.989Z,92.19
2022-11-22T07:58:29.516Z,91.62
2022-11-22T08:00:50.964Z,92.35
2022-11-22T08:03:17.214Z,92.38
2022-11-22T08:05:39.201Z,93.34
2022-11-22T08:08:00.652Z,93.52
2022-11-22T08:10:22.829Z,93.62
2022-11-22T08:12:44.831Z,93.47
2022-11-22T08:15:07.307Z,92.75
2022-11-22T08:17:28.765Z,93.64
2022-11-22T08:19:53.434Z,94.68
2022-11-22T08:22:14.946Z,93.86
2022-11-22T08:24:36.356Z,93.89
2022-11-22T08:26:57.806Z,93.44
2022-11-22T08:29:19.316Z,93.54
2022-11-22T08:31:40.865Z,93.30
2022-11-22T08:34:02.592Z,93.08
2022-11-22T08:36:24.276Z,92.71
2022-11-22T08:38:45.846Z,91.73
2022-11-22T08:41:07.521Z,90.26
2022-11-22T08:43:28.928Z,89.72
2022-11-22T08:45:55.343Z,89.25
2022-11-22T08:48:21.973Z,88.48
2022-11-22T08:50:53.753Z,89.00
2022-11-22T08:53:15.212Z,90.35
2022-11-22T08:55:36.702Z,90.78
2022-11-22T08:58:01.266Z,91.34
2022-11-22T09:00:22.791Z,92.23
2022-11-22T09:02:44.368Z,92.29
2022-11-22T09:05:05.911Z,92.00
2022-11-22T09:10:11.083Z,91.67
2022-11-22T09:12:32.657Z,91.60
2022-11-22T09:14:54.065Z,92.18
2022-11-22T09:17:18.044Z,93.01
2022-11-22T09:19:39.820Z,93.20
2022-11-22T09:22:01.255Z,92.93
2022-11-22T09:24:22.720Z,93.42
2022-11-22T09:26:44.188Z,92.17
2022-11-22T09:29:05.658Z,91.10
2022-11-22T09:31:27.095Z,90.99
2022-11-22T09:33:49.533Z,90.28
2022-11-22T09:36:19.461Z,88.61
2022-11-22T09:38:41.387Z,87.20
2022-11-22T09:41:18.445Z,85.81
2022-11-22T09:43:52.640Z,86.02
2022-11-22T09:46:55.294Z,84.12
2022-11-22T09:49:27.038Z,83.81
2022-11-22T09:52:00.221Z,82.37
2022-11-22T09:54:27.050Z,83.67
2022-11-22T09:56:54.149Z,82.25
2022-11-22T09:59:22.558Z,80.65
2022-11-22T10:01:48.489Z,81.75
2022-11-22T10:04:28.133Z,82.10
2022-11-22T10:06:55.105Z,82.75
2022-11-22T10:09:39.407Z,82.64
2022-11-22T10:12:12.471Z,80.46
2022-11-22T10:15:02.756Z,81.07
2022-11-22T10:17:34.800Z,79.80
2022-11-22T10:20:09.485Z,79.97
2022-11-22T10:22:31.033Z,80.18
2022-11-22T10:24:52.448Z,79.16
2022-11-22T10:27:15.433Z,79.09
2022-11-22T10:29:46.837Z,78.04
2022-11-22T10:32:18.389Z,75.55
2022-11-22T10:34:58.048Z,76.02
2022-11-22T10:37:31.048Z,74.93
2022-11-22T10:40:05.355Z,75.79
2022-11-22T10:42:57.653Z,72.24
2022-11-22T10:45:27.961Z,72.33
2022-11-22T10:48:18.600Z,72.22
2022-11-22T10:51:10.955Z,72.38
2022-11-22T10:53:38.351Z,71.66
2022-11-22T10:56:17.408Z,73.16
2022-11-22T10:59:07.903Z,71.95
2022-11-22T11:01:45.287Z,70.89
2022-11-22T11:04:09.652Z,70.39
2022-11-22T11:06:57.044Z,68.24
2022-11-22T11:12:19.682Z,67.23
2022-11-22T11:14:46.017Z,67.85
2022-11-22T11:17:07.693Z,69.60
2022-11-22T11:19:31.938Z,68.56
2022-11-22T11:21:59.335Z,68.80
2022-11-22T11:24:20.782Z,69.08
2022-11-22T11:26:51.007Z,69.38
2022-11-22T11:29:18.420Z,68.52
2022-11-22T11:31:44.708Z,68.20
2022-11-22T11:34:23.618Z,68.96
2022-11-22T11:36:45.168Z,70.06
2022-11-22T11:39:20.491Z,68.99
2022-11-22T11:41:43.542Z,69.89
2022-11-22T11:44:05.732Z,69.79
2022-11-22T11:46:29.557Z,69.89
2022-11-22T11:48:56.129Z,71.04
2022-11-22T11:51:24.602Z,70.65
2022-11-22T11:53:59.937Z,70.62
2022-11-22T11:56:32.722Z,70.14
2022-11-22T11:58:56.712Z,71.33
2022-11-22T12:01:20.548Z,72.15
2022-11-22T12:03:42.054Z,72.52
2022-11-22T12:06:13.088Z,74.15
2022-11-22T12:08:34.551Z,74.28
2022-11-22T12:11:05.720Z,73.31
2022-11-22T12:13:57.669Z,74.37
2022-11-22T12:16:29.239Z,75.26
2022-11-22T12:19:08.183Z,75.63
2022-11-22T12:21:41.971Z,74.87
2022-11-22T12:26:56.695Z,74.01
2022-11-22T12:29:18.139Z,73.48
2022-11-22T12:31:42.369Z,74.38
2022-11-22T12:34:25.763Z,73.38
2022-11-22T12:37:00.604Z,73.25
2022-11-22T12:39:26.483Z,72.21
2022-11-22T12:41:50.079Z,71.66
2022-11-22T12:44:19.671Z,71.77
2022-11-22T12:46:46.755Z,72.81
2022-11-22T12:49:30.121Z,73.13
2022-11-22T12:52:13.284Z,72.93
2022-11-22T12:54:55.746Z,72.07
2022-11-22T12:57:23.480Z,75.07
2022-11-22T13:00:08.257Z,75.15
2022-11-22T13:02:45.614Z,73.17
2022-11-22T13:05:15.565Z,74.57
2022-11-22T13:07:44.714Z,74.68
2022-11-22T13:10:14.546Z,73.58
2022-11-22T13:12:39.174Z,73.92
2022-11-22T13:15:01.758Z,75.03
2022-11-22T13:17:26.217Z,74.51
2022-11-22T13:20:13.644Z,72.80
2022-11-22T13:23:03.257Z,73.27
2022-11-22T13:25:45.512Z,72.67
2022-11-22T13:28:14.229Z,71.15
2022-11-22T13:30:39.453Z,71.26
2022-11-22T13:33:01.103Z,71.08
2022-11-22T13:35:27.975Z,69.27
2022-11-22T13:37:53.240Z,66.38
2022-11-22T13:40:28.583Z,67.66
2022-11-22T13:43:15.526Z,67.72
2022-11-22T13:45:51.798Z,68.01
2022-11-22T13:48:13.751Z,67.22
2022-11-22T13:50:41.118Z,66.96
2022-11-22T13:53:21.713Z,64.76
2022-11-22T13:55:43.183Z,66.41
2022-11-22T13:58:26.849Z,67.68
2022-11-22T14:00:48.450Z,66.57
2022-11-22T14:03:16.083Z,65.90
2022-11-22T14:05:41.920Z,65.08
2022-11-22T14:08:05.914Z,65.50
2022-11-22T14:10:30.593Z,64.62
2022-11-22T14:13:03.585Z,66.10
2022-11-22T14:15:46.866Z,66.95
2022-11-22T14:18:40.202Z,66.14
2022-11-22T14:21:14.440Z,67.61
2022-11-22T14:24:08.774Z,68.26
2022-11-22T14:26:36.239Z,67.50
2022-11-22T14:29:23.962Z,68.04
2022-11-22T14:31:56.104Z,67.19
2022-11-22T14:34:20.648Z,68.54
2022-11-22T14:36:42.662Z,69.18
2022-11-22T14:39:42.556Z,70.32
2022-11-22T14:42:40.440Z,71.09
2022-11-22T14:45:10.762Z,72.54
2022-11-22T14:47:35.338Z,73.11
2022-11-22T14:49:57.441Z,74.23
2022-11-22T14:52:25.398Z,73.33
2022-11-22T14:54:52.363Z,73.62
2022-11-22T14:57:21.096Z,73.86
2022-11-22T14:59:54.699Z,74.56
2022-11-22T15:02:34.206Z,74.85
2022-11-22T15:09:10.582Z,74.44
2022-11-22T15:09:11.235Z,75.08
2022-11-22T15:11:07.100Z,74.80
2022-11-22T15:13:43.797Z,74.96
2022-11-22T15:57:54.485Z,82.53
2022-11-22T16:00:22.099Z,81.58
2022-11-22T16:02:49.974Z,82.37
2022-11-22T16:06:08.094Z,82.22
2022-11-22T16:07:53.676Z,82.63
2022-11-22T16:10:33.485Z,82.74
2022-11-22T16:12:54.952Z,81.96
2022-11-22T16:15:23.328Z,82.13
2022-11-22T16:17:59.217Z,80.69
2022-11-22T16:20:30.233Z,79.91
2022-11-22T16:23:09.747Z,79.95
2022-11-22T16:25:32.883Z,80.84
2022-11-22T16:27:54.354Z,81.25
2022-11-22T16:30:20.660Z,81.69
2022-11-22T16:32:45.119Z,81.04
2022-11-22T16:35:28.495Z,80.00
2022-11-22T16:37:50.802Z,80.47
2022-11-22T16:40:16.454Z,79.95
2022-11-22T16:42:41.336Z,78.50
2022-11-22T16:45:04.563Z,78.85
2022-11-22T16:47:26.214Z,78.97
2022-11-22T16:49:48.810Z,78.29
2022-11-22T16:52:12.513Z,79.42
2022-11-22T16:54:33.997Z,80.11
2022-11-22T16:56:55.452Z,79.69
2022-11-22T16:59:16.918Z,79.29
2022-11-22T17:01:41.504Z,78.67
2022-11-22T17:04:04.841Z,80.05
2022-11-22T17:06:28.549Z,80.02
2022-11-22T17:08:52.902Z,80.68
2022-11-22T17:11:19.960Z,79.74
2022-11-22T17:13:41.419Z,82.58
2022-11-22T17:16:02.927Z,82.12
2022-11-22T17:18:24.514Z,81.46
2022-11-22T17:20:46.337Z,80.34
2022-11-22T17:23:14.773Z,81.51
2022-11-22T17:25:36.378Z,82.26
2022-11-22T17:27:57.838Z,81.56
2022-11-22T17:30:19.363Z,82.59
2022-11-22T17:32:40.825Z,82.53
2022-11-22T17:35:02.222Z,81.01
2022-11-22T17:37:23.742Z,82.03
2022-11-22T17:39:45.297Z,82.11
2022-11-22T17:42:06.886Z,81.94
2022-11-22T17:44:28.321Z,81.92
2022-11-22T17:46:49.817Z,82.35
2022-11-22T17:49:15.684Z,82.71
2022-11-22T17:51:38.198Z,82.25
2022-11-22T17:53:59.743Z,82.96
2022-11-22T17:56:21.319Z,81.48
2022-11-22T17:58:43.096Z,83.75
2022-11-22T18:01:13.294Z,83.12
2022-11-22T18:03:34.877Z,83.09
2022-11-22T18:05:56.559Z,83.30
2022-11-22T18:08:18.206Z,84.01
2022-11-22T18:10:39.867Z,83.12
2022-11-22T18:13:22.541Z,83.47
2022-11-22T18:15:42.768Z,83.36
2022-11-22T18:18:04.530Z,82.05
2022-11-22T18:20:26.034Z,82.42
2022-11-22T18:22:47.533Z,83.86
2022-11-22T18:25:09.477Z,84.22
2022-11-22T18:27:36.391Z,84.66
2022-11-22T18:30:02.189Z,84.12
2022-11-22T18:32:23.628Z,84.53
2022-11-22T18:34:45.138Z,83.80
2022-11-22T18:37:06.837Z,83.66
2022-11-22T18:39:31.207Z,84.01
2022-11-22T18:41:53.097Z,84.72
2022-11-22T18:44:14.872Z,83.89
2022-11-22T18:46:36.346Z,84.27
2022-11-22T18:48:57.806Z,84.42
2022-11-22T18:51:19.294Z,85.34
2022-11-22T18:53:41.637Z,85.00
2022-11-22T18:56:08.934Z,83.71
2022-11-22T18:58:34.649Z,84.33
2022-11-22T19:00:56.514Z,85.07
2022-11-22T19:03:17.999Z,86.38
2022-11-22T19:05:40.084Z,85.13
2022-11-22T19:08:01.546Z,85.13
2022-11-22T19:10:22.991Z,85.49
2022-11-22T19:12:44.471Z,85.01
2022-11-22T19:15:06.447Z,84.21
2022-11-22T19:17:27.923Z,84.64
2022-11-22T19:19:51.751Z,84.63
2022-11-22T19:22:13.307Z,83.65
2022-11-22T19:24:34.798Z,84.33
2022-11-22T19:26:56.315Z,85.03
2022-11-22T19:29:18.121Z,83.69
2022-11-22T19:31:39.619Z,84.71
2022-11-22T19:34:01.069Z,83.84
2022-11-22T19:36:27.874Z,84.49
2022-11-22T19:38:53.514Z,84.72
2022-11-22T19:41:17.313Z,83.57
2022-11-22T19:43:39.118Z,83.43
2022-11-22T19:46:01.534Z,83.68
2022-11-22T19:48:22.984Z,82.98
2022-11-22T19:50:45.321Z,83.54
2022-11-22T19:53:07.637Z,83.15
2022-11-22T19:55:29.061Z,85.10
2022-11-22T19:57:50.516Z,85.46
2022-11-22T20:00:12.647Z,86.08
2022-11-22T20:02:34.075Z,85.12
2022-11-22T20:04:55.503Z,85.55
2022-11-22T20:07:18.087Z,85.88
2022-11-22T20:09:39.609Z,85.09
2022-11-22T20:12:01.200Z,84.70
2022-11-22T20:14:22.681Z,85.18
2022-11-22T20:16:44.325Z,85.45
2022-11-22T20:19:07.528Z,85.55
2022-11-22T20:21:31.467Z,85.06
2022-11-22T20:23:53.738Z,85.43
2022-11-22T20:26:16.617Z,85.44
2022-11-22T20:28:39.689Z,84.57
2022-11-22T20:31:12.043Z,83.61
2022-11-22T20:33:35.207Z,83.12
2022-11-22T20:36:08.007Z,83.25
2022-11-22T20:38:32.532Z,84.53
2022-11-22T20:40:56.974Z,85.56
2022-11-22T20:43:18.433Z,85.11
2022-11-22T20:45:39.964Z,85.19
2022-11-22T20:48:01.738Z,85.17
2022-11-22T20:50:23.116Z,84.61
2022-11-22T20:52:44.561Z,83.78
2022-11-22T20:55:06.551Z,83.75
2022-11-22T20:57:28.045Z,83.64
2022-11-22T20:59:49.460Z,84.74
2022-11-22T21:02:11.215Z,85.75
2022-11-22T21:04:33.032Z,86.50
2022-11-22T21:06:57.654Z,86.91
2022-11-22T21:09:19.094Z,85.42
2022-11-22T21:11:41.184Z,85.50
2022-11-22T21:14:02.623Z,86.46
2022-11-22T21:16:26.636Z,85.67
2022-11-22T21:19:10.327Z,86.17
2022-11-22T21:21:34.723Z,85.40
2022-11-22T21:24:00.196Z,85.60
2022-11-22T21:26:23.005Z,85.62
2022-11-22T21:28:44.565Z,84.89
2022-11-22T21:31:06.368Z,84.55
2022-11-22T21:33:30.669Z,84.28
2022-11-22T21:35:53.192Z,84.64
2022-11-22T21:38:14.857Z,85.22
2022-11-22T21:40:36.287Z,84.25
2022-11-22T21:42:57.743Z,85.92
2022-11-22T21:45:19.161Z,85.98
2022-11-22T21:47:40.589Z,86.82
2022-11-22T21:50:04.083Z,87.59
2022-11-22T21:52:27.476Z,87.29
2022-11-22T21:54:48.976Z,88.51
2022-11-22T21:57:10.472Z,88.74
2022-11-22T21:59:32.523Z,88.10
2022-11-22T22:01:54.293Z,87.52
2022-11-22T22:04:16.545Z,86.71
2022-11-22T22:06:40.302Z,86.40
2022-11-22T22:09:05.026Z,87.27
2022-11-22T22:11:26.474Z,88.53
2022-11-22T22:13:47.985Z,88.77
2022-11-22T22:16:15.454Z,89.08
2022-11-22T22:18:37.796Z,90.81
2022-11-22T22:21:05.392Z,90.57
2022-11-22T22:23:26.891Z,89.61
2022-11-22T22:25:48.301Z,89.73
2022-11-22T22:28:09.754Z,89.70
2022-11-22T22:30:31.258Z,88.39
2022-11-22T22:32:52.767Z,87.17
2022-11-22T22:35:14.296Z,87.30
2022-11-22T22:37:35.805Z,87.46
2022-11-22T22:39:57.230Z,88.23
2022-11-22T22:42:19.219Z,88.39
2022-11-22T22:44:40.657Z,88.39
2022-11-22T22:47:02.086Z,88.50
2022-11-22T22:49:23.514Z,88.70
2022-11-22T22:51:44.947Z,89.22
2022-11-22T22:54:06.433Z,89.79
2022-11-22T22:56:29.714Z,91.04
2022-11-22T22:58:58.937Z,91.61
2022-11-22T23:01:22.978Z,90.96
2022-11-22T23:03:53.120Z,91.53
2022-11-22T23:06:14.963Z,92.00
2022-11-22T23:08:37.483Z,92.17
2022-11-22T23:11:09.628Z,93.36
2022-11-22T23:13:31.308Z,93.40
2022-11-22T23:15:58.312Z,93.31
2022-11-22T23:18:19.961Z,94.20
2022-11-22T23:20:41.430Z,94.64
2022-11-22T23:23:02.881Z,94.11
2022-11-22T23:25:24.327Z,94.30
2022-11-22T23:27:45.779Z,92.98
2022-11-22T23:30:07.955Z,92.27
2022-11-22T23:32:31.390Z,91.95
2022-11-22T23:34:52.808Z,91.65
2022-11-22T23:37:14.620Z,91.07
2022-11-22T23:39:36.030Z,90.75
2022-11-22T23:41:57.500Z,90.17
2022-11-22T23:44:18.917Z,88.98
2022-11-22T23:46:40.456Z,89.17
2022-11-22T23:49:03.974Z,88.93
2022-11-22T23:51:27.005Z,89.03
2022-11-22T23:53:48.591Z,88.66
2022-11-22T23:56:20.433Z,88.50
2022-11-22T23:58:43.605Z,88.60
